createdAt,value
2018-09-29T00:02:16.767Z,12.70
2018-09-29T00:04:45.233Z,12.60
2018-09-29T00:07:13.783Z,12.60
2018-09-29T00:09:42.247Z,12.60
2018-09-29T00:12:10.758Z,12.60
2018-09-29T00:14:39.243Z,12.60
2018-09-29T00:17:07.727Z,12.60
2018-09-29T00:19:36.274Z,12.50
2018-09-29T00:22:04.791Z,12.50
2018-09-29T00:24:33.339Z,12.60
2018-09-29T00:27:01.847Z,12.60
2018-09-29T00:29:30.333Z,12.60
2018-09-29T00:31:58.883Z,12.60
2018-09-29T00:34:27.329Z,12.60
2018-09-29T00:36:55.940Z,12.60
2018-09-29T00:39:24.378Z,12.50
2018-09-29T00:41:52.978Z,12.50
2018-09-29T00:44:21.445Z,12.50
2018-09-29T00:46:49.949Z,12.50
2018-09-29T00:49:18.509Z,12.50
2018-09-29T00:51:47.000Z,12.40
2018-09-29T00:54:15.541Z,12.40
2018-09-29T00:56:44.053Z,12.40
2018-09-29T00:59:12.558Z,12.30
2018-09-29T01:01:41.057Z,12.30
2018-09-29T01:04:09.531Z,12.30
2018-09-29T01:06:38.107Z,12.30
2018-09-29T01:09:06.970Z,12.20
2018-09-29T01:11:35.618Z,12.20
2018-09-29T01:14:04.099Z,12.20
2018-09-29T01:16:32.610Z,12.10
2018-09-29T01:19:01.126Z,12.10
2018-09-29T01:21:29.622Z,12.00
2018-09-29T01:23:58.192Z,12.00
2018-09-29T01:26:26.711Z,11.90
2018-09-29T01:28:55.169Z,11.80
2018-09-29T01:31:23.683Z,11.80
2018-09-29T01:33:52.190Z,11.70
2018-09-29T01:36:20.664Z,11.70
2018-09-29T01:38:49.147Z,11.60
2018-09-29T01:41:17.635Z,11.50
2018-09-29T01:43:46.125Z,11.50
2018-09-29T01:46:14.607Z,11.50
2018-09-29T01:48:43.143Z,11.40
2018-09-29T01:51:11.647Z,11.30
2018-09-29T01:53:40.144Z,11.30
2018-09-29T01:56:08.616Z,11.30
2018-09-29T01:58:37.105Z,11.20
2018-09-29T02:01:05.571Z,11.20
2018-09-29T02:03:34.058Z,11.20
2018-09-29T02:06:02.546Z,11.20
2018-09-29T02:08:31.020Z,11.10
2018-09-29T02:10:59.478Z,11.10
2018-09-29T02:13:27.937Z,11.00
2018-09-29T02:15:56.396Z,11.00
2018-09-29T02:18:24.886Z,10.90
2018-09-29T02:20:53.368Z,10.80
2018-09-29T02:23:21.856Z,10.70
2018-09-29T02:25:50.322Z,10.70
2018-09-29T02:28:18.813Z,10.70
2018-09-29T02:30:47.274Z,10.60
2018-09-29T02:33:15.731Z,10.60
2018-09-29T02:35:44.190Z,10.50
2018-09-29T02:38:12.664Z,10.50
2018-09-29T02:40:41.189Z,10.40
2018-09-29T02:43:09.687Z,10.30
2018-09-29T02:45:38.168Z,10.30
2018-09-29T02:48:06.845Z,10.20
2018-09-29T02:50:35.323Z,10.20
2018-09-29T02:53:03.815Z,10.20
2018-09-29T02:55:32.304Z,10.20
2018-09-29T02:58:00.796Z,10.10
2018-09-29T03:00:29.279Z,10.10
2018-09-29T03:02:57.759Z,10.00
2018-09-29T03:05:26.283Z,9.90
2018-09-29T03:07:54.774Z,9.80
2018-09-29T03:10:23.213Z,9.80
2018-09-29T03:12:51.662Z,9.70
2018-09-29T03:15:20.150Z,9.70
2018-09-29T03:17:48.612Z,9.60
2018-09-29T03:20:17.128Z,9.60
2018-09-29T03:22:45.603Z,9.70
2018-09-29T03:25:14.084Z,9.60
2018-09-29T03:27:42.569Z,9.50
2018-09-29T03:30:11.057Z,9.40
2018-09-29T03:32:39.561Z,9.30
2018-09-29T03:35:08.052Z,9.30
2018-09-29T03:37:36.537Z,9.20
2018-09-29T03:40:05.061Z,9.10
2018-09-29T03:42:33.534Z,9.10
2018-09-29T03:45:02.008Z,9.00
2018-09-29T03:47:30.452Z,8.90
2018-09-29T03:49:58.931Z,8.80
2018-09-29T03:52:27.408Z,8.70
2018-09-29T03:54:55.909Z,8.60
2018-09-29T03:57:24.356Z,8.60
2018-09-29T03:59:52.868Z,8.60
2018-09-29T04:02:21.319Z,8.60
2018-09-29T04:04:49.799Z,8.60
2018-09-29T04:07:18.247Z,8.50
2018-09-29T04:09:46.727Z,8.50
2018-09-29T04:12:15.207Z,8.50
2018-09-29T04:14:43.657Z,8.40
2018-09-29T04:17:12.128Z,8.40
2018-09-29T04:19:40.602Z,8.30
2018-09-29T04:22:09.054Z,8.30
2018-09-29T04:24:37.561Z,8.20
2018-09-29T04:27:06.029Z,8.20
2018-09-29T04:29:34.507Z,8.20
2018-09-29T04:32:02.985Z,8.20
2018-09-29T04:34:31.509Z,8.20
2018-09-29T04:36:59.934Z,8.10
2018-09-29T04:39:28.388Z,8.00
2018-09-29T04:41:56.863Z,8.00
2018-09-29T04:44:25.351Z,8.10
2018-09-29T04:46:53.806Z,8.00
2018-09-29T04:49:22.273Z,8.00
2018-09-29T04:51:50.736Z,7.90
2018-09-29T04:54:19.204Z,7.80
2018-09-29T04:56:47.678Z,7.80
2018-09-29T04:59:16.128Z,7.90
2018-09-29T05:01:44.603Z,7.90
2018-09-29T05:04:13.059Z,7.80
2018-09-29T05:06:41.539Z,7.80
2018-09-29T05:09:10.554Z,7.80
2018-09-29T05:11:39.040Z,7.80
2018-09-29T05:14:07.619Z,7.80
2018-09-29T05:16:36.053Z,7.80
2018-09-29T05:19:04.509Z,7.80
2018-09-29T05:21:32.985Z,7.70
2018-09-29T05:24:01.495Z,7.70
2018-09-29T05:26:29.978Z,7.80
2018-09-29T05:28:58.542Z,7.70
2018-09-29T05:31:27.006Z,7.80
2018-09-29T05:33:55.489Z,7.80
2018-09-29T05:36:23.943Z,7.80
2018-09-29T05:38:52.414Z,7.90
2018-09-29T05:41:20.895Z,7.90
2018-09-29T05:43:49.320Z,7.90
2018-09-29T05:46:17.776Z,8.00
2018-09-29T05:48:46.255Z,7.90
2018-09-29T05:51:14.705Z,8.00
2018-09-29T05:53:43.146Z,8.00
2018-09-29T05:56:11.619Z,8.00
2018-09-29T05:58:40.031Z,8.10
2018-09-29T06:01:08.500Z,8.10
2018-09-29T06:03:36.931Z,8.20
2018-09-29T06:06:05.448Z,8.20
2018-09-29T06:08:33.896Z,8.20
2018-09-29T06:11:02.390Z,8.30
2018-09-29T06:13:30.845Z,8.40
2018-09-29T06:15:59.281Z,8.40
2018-09-29T06:18:27.790Z,8.50
2018-09-29T06:20:56.325Z,8.50
2018-09-29T06:23:24.760Z,8.60
2018-09-29T06:25:53.211Z,8.60
2018-09-29T06:28:21.695Z,8.60
2018-09-29T06:30:50.233Z,8.70
2018-09-29T06:33:18.692Z,8.80
2018-09-29T06:35:47.134Z,8.80
2018-09-29T06:38:15.604Z,8.80
2018-09-29T06:40:44.154Z,8.90
2018-09-29T06:43:12.643Z,8.80
2018-09-29T06:45:41.210Z,8.90
2018-09-29T06:48:09.715Z,8.90
2018-09-29T06:50:38.216Z,8.90
2018-09-29T06:53:06.708Z,9.00
2018-09-29T06:55:35.163Z,9.10
2018-09-29T06:58:03.648Z,9.20
2018-09-29T07:00:32.160Z,9.20
2018-09-29T07:03:00.674Z,9.20
2018-09-29T07:05:29.135Z,9.30
2018-09-29T07:07:57.621Z,9.40
2018-09-29T07:10:26.115Z,9.30
2018-09-29T07:12:54.662Z,9.40
2018-09-29T07:15:23.100Z,9.40
2018-09-29T07:17:51.604Z,9.50
2018-09-29T07:20:20.157Z,9.60
2018-09-29T07:22:48.665Z,9.60
2018-09-29T07:25:17.226Z,9.80
2018-09-29T07:27:45.694Z,9.90
2018-09-29T07:30:14.185Z,10.00
2018-09-29T07:32:42.710Z,10.10
2018-09-29T07:35:11.161Z,10.20
2018-09-29T07:37:39.706Z,10.20
2018-09-29T07:40:08.212Z,10.30
2018-09-29T07:42:36.682Z,10.30
2018-09-29T07:45:05.158Z,10.50
2018-09-29T07:47:33.671Z,10.50
2018-09-29T07:50:02.145Z,10.50
2018-09-29T07:52:30.675Z,10.50
2018-09-29T07:54:59.524Z,10.60
2018-09-29T07:57:27.974Z,10.80
2018-09-29T07:59:56.455Z,10.90
2018-09-29T08:02:24.929Z,11.00
2018-09-29T08:04:53.424Z,11.10
2018-09-29T08:07:21.889Z,11.00
2018-09-29T08:09:50.351Z,11.10
2018-09-29T08:12:18.866Z,11.20
2018-09-29T08:14:47.375Z,11.40
2018-09-29T08:17:15.846Z,11.30
2018-09-29T08:19:44.321Z,11.20
2018-09-29T08:22:12.763Z,11.30
2018-09-29T08:24:41.263Z,11.40
2018-09-29T08:27:09.721Z,11.60
2018-09-29T08:29:38.221Z,11.70
2018-09-29T08:32:06.723Z,11.70
2018-09-29T08:34:35.195Z,11.70
2018-09-29T08:37:03.664Z,11.70
2018-09-29T08:39:32.149Z,11.50
2018-09-29T08:42:00.630Z,11.70
2018-09-29T08:44:29.122Z,11.80
2018-09-29T08:46:57.581Z,11.90
2018-09-29T08:49:26.039Z,12.00
2018-09-29T08:51:54.489Z,12.00
2018-09-29T08:54:22.946Z,11.90
2018-09-29T08:56:51.424Z,11.90
2018-09-29T08:59:19.897Z,12.10
2018-09-29T09:01:48.350Z,12.10
2018-09-29T09:04:16.855Z,12.30
2018-09-29T09:06:45.315Z,12.30
2018-09-29T09:09:13.809Z,12.40
2018-09-29T09:11:42.250Z,12.50
2018-09-29T09:14:10.806Z,12.50
2018-09-29T09:16:39.298Z,12.50
2018-09-29T09:19:07.805Z,12.60
2018-09-29T09:21:36.314Z,12.70
2018-09-29T09:24:04.823Z,12.90
2018-09-29T09:26:33.310Z,13.00
2018-09-29T09:29:01.830Z,13.20
2018-09-29T09:31:30.375Z,13.20
2018-09-29T09:33:58.813Z,13.10
2018-09-29T09:36:27.261Z,13.00
2018-09-29T09:38:55.700Z,13.00
2018-09-29T09:41:24.266Z,13.20
2018-09-29T09:43:52.746Z,13.30
2018-09-29T09:46:21.252Z,13.30
2018-09-29T09:48:49.735Z,13.30
2018-09-29T09:51:18.561Z,13.60
2018-09-29T09:53:47.051Z,13.40
2018-09-29T09:56:15.608Z,13.50
2018-09-29T09:58:44.131Z,13.60
2018-09-29T10:01:17.956Z,13.70
2018-09-29T10:03:46.434Z,13.60
2018-09-29T10:06:14.967Z,13.90
2018-09-29T10:08:43.466Z,13.70
2018-09-29T10:11:11.930Z,13.80
2018-09-29T10:13:40.446Z,13.80
2018-09-29T10:16:09.073Z,14.00
2018-09-29T10:18:37.686Z,13.90
2018-09-29T10:21:06.215Z,14.20
2018-09-29T10:23:35.205Z,14.30
2018-09-29T10:26:03.911Z,14.30
2018-09-29T10:28:32.420Z,14.20
2018-09-29T10:31:00.950Z,14.30
2018-09-29T10:33:29.425Z,14.20
2018-09-29T10:35:57.966Z,14.40
2018-09-29T10:38:26.474Z,14.40
2018-09-29T10:40:55.018Z,14.60
2018-09-29T10:43:23.571Z,14.60
2018-09-29T10:45:52.054Z,14.60
2018-09-29T10:48:20.644Z,14.80
2018-09-29T10:50:49.220Z,14.70
2018-09-29T10:53:17.724Z,14.80
2018-09-29T10:55:46.339Z,15.00
2018-09-29T10:58:14.878Z,15.20
2018-09-29T11:00:43.423Z,15.20
2018-09-29T11:03:13.043Z,15.10
2018-09-29T11:05:41.594Z,15.20
2018-09-29T11:08:10.106Z,15.40
2018-09-29T11:10:38.616Z,15.60
2018-09-29T11:13:07.175Z,15.70
2018-09-29T11:15:35.735Z,15.60
2018-09-29T11:18:04.367Z,15.70
2018-09-29T11:20:33.028Z,15.60
2018-09-29T11:23:01.538Z,15.60
2018-09-29T11:25:30.045Z,15.40
2018-09-29T11:27:58.596Z,15.40
2018-09-29T11:30:27.127Z,15.50
2018-09-29T11:32:55.646Z,15.70
2018-09-29T11:35:24.134Z,15.90
2018-09-29T11:37:52.649Z,15.70
2018-09-29T11:40:21.203Z,15.80
2018-09-29T11:42:49.708Z,15.70
2018-09-29T11:45:18.256Z,15.80
2018-09-29T11:47:46.797Z,15.80
2018-09-29T11:50:15.293Z,16.00
2018-09-29T11:52:43.855Z,16.20
2018-09-29T11:55:12.363Z,16.00
2018-09-29T11:57:40.859Z,15.80
2018-09-29T12:00:09.369Z,15.90
2018-09-29T12:02:37.865Z,16.00
2018-09-29T12:05:06.481Z,16.00
2018-09-29T12:07:35.001Z,16.10
2018-09-29T12:10:03.513Z,16.20
2018-09-29T12:12:32.171Z,16.20
2018-09-29T12:15:00.745Z,16.10
2018-09-29T12:17:29.267Z,16.20
2018-09-29T12:19:57.838Z,16.30
2018-09-29T12:22:26.567Z,16.40
2018-09-29T12:24:54.954Z,16.30
2018-09-29T12:27:24.921Z,16.30
2018-09-29T12:29:52.060Z,16.30
2018-09-29T12:32:20.554Z,16.40
2018-09-29T12:34:49.029Z,16.60
2018-09-29T12:37:17.558Z,16.60
2018-09-29T12:39:46.019Z,16.60
2018-09-29T12:42:14.552Z,16.70
2018-09-29T12:44:43.027Z,16.60
2018-09-29T12:47:11.501Z,16.40
2018-09-29T12:49:39.973Z,16.50
2018-09-29T12:52:08.436Z,16.60
2018-09-29T12:54:36.951Z,16.60
2018-09-29T12:57:05.455Z,16.60
2018-09-29T12:59:33.960Z,16.50
2018-09-29T13:02:02.402Z,16.60
2018-09-29T13:04:30.908Z,16.80
2018-09-29T13:06:59.366Z,16.80
2018-09-29T13:09:27.841Z,16.80
2018-09-29T13:11:56.333Z,17.00
2018-09-29T13:14:24.811Z,17.10
2018-09-29T13:16:53.345Z,16.90
2018-09-29T13:19:21.798Z,16.90
2018-09-29T13:21:50.246Z,16.60
2018-09-29T13:24:18.729Z,16.80
2018-09-29T13:26:47.173Z,16.90
2018-09-29T13:29:15.668Z,16.90
2018-09-29T13:31:44.147Z,16.90
2018-09-29T13:34:12.607Z,16.90
2018-09-29T13:36:41.062Z,16.90
2018-09-29T13:39:09.530Z,17.00
2018-09-29T13:41:37.997Z,17.00
2018-09-29T13:44:06.550Z,17.10
2018-09-29T13:46:34.984Z,17.20
2018-09-29T13:49:03.488Z,17.10
2018-09-29T13:51:32.232Z,17.10
2018-09-29T13:54:00.761Z,17.20
2018-09-29T13:56:29.216Z,17.20
2018-09-29T13:58:57.699Z,17.20
2018-09-29T14:01:26.216Z,17.20
2018-09-29T14:03:54.710Z,17.10
2018-09-29T14:06:23.187Z,17.00
2018-09-29T14:08:51.694Z,17.00
2018-09-29T14:11:20.215Z,17.00
2018-09-29T14:13:48.677Z,17.10
2018-09-29T14:16:17.138Z,17.30
2018-09-29T14:18:45.589Z,17.20
2018-09-29T14:21:14.055Z,17.30
2018-09-29T14:23:42.553Z,17.00
2018-09-29T14:26:11.066Z,17.20
2018-09-29T14:28:39.574Z,17.20
2018-09-29T14:31:08.044Z,17.30
2018-09-29T14:33:36.479Z,17.30
2018-09-29T14:36:04.972Z,17.40
2018-09-29T14:38:33.441Z,17.30
2018-09-29T14:41:01.965Z,17.10
2018-09-29T14:43:31.097Z,17.10
2018-09-29T14:45:59.628Z,17.20
2018-09-29T14:48:28.109Z,17.20
2018-09-29T14:50:56.616Z,17.10
2018-09-29T14:53:25.136Z,17.10
2018-09-29T14:55:53.633Z,17.10
2018-09-29T14:58:22.121Z,17.20
2018-09-29T15:00:50.660Z,17.20
2018-09-29T15:03:19.202Z,17.30
2018-09-29T15:05:47.771Z,17.10
2018-09-29T15:08:16.249Z,17.00
2018-09-29T15:10:44.770Z,17.10
2018-09-29T15:13:13.258Z,17.10
2018-09-29T15:15:41.873Z,17.00
2018-09-29T15:18:10.360Z,17.00
2018-09-29T15:20:38.880Z,17.00
2018-09-29T15:23:07.376Z,17.00
2018-09-29T15:25:35.891Z,17.00
2018-09-29T15:28:04.370Z,17.00
2018-09-29T15:30:32.865Z,17.00
2018-09-29T15:33:01.343Z,17.10
2018-09-29T15:35:29.860Z,17.00
2018-09-29T15:37:58.364Z,17.00
2018-09-29T15:40:26.904Z,17.00
2018-09-29T15:42:55.549Z,17.00
2018-09-29T15:45:23.843Z,17.00
2018-09-29T15:47:52.356Z,17.00
2018-09-29T15:50:20.790Z,16.90
2018-09-29T15:52:49.275Z,16.90
2018-09-29T15:55:17.785Z,16.80
2018-09-29T15:57:46.269Z,16.80
2018-09-29T16:00:14.763Z,16.70
2018-09-29T16:02:43.304Z,16.70
2018-09-29T16:05:11.874Z,16.70
2018-09-29T16:07:40.443Z,16.70
2018-09-29T16:10:08.932Z,16.70
2018-09-29T16:12:37.440Z,16.70
2018-09-29T16:15:06.009Z,16.60
2018-09-29T16:17:34.511Z,16.60
2018-09-29T16:20:03.031Z,16.60
2018-09-29T16:22:31.507Z,16.50
2018-09-29T16:25:00.021Z,16.40
2018-09-29T16:27:28.544Z,16.40
2018-09-29T16:29:57.021Z,16.30
2018-09-29T16:32:25.591Z,16.30
2018-09-29T16:34:54.091Z,16.30
2018-09-29T16:37:22.534Z,16.20
2018-09-29T16:39:50.996Z,16.20
2018-09-29T16:42:19.528Z,16.10
2018-09-29T16:44:47.997Z,16.10
2018-09-29T16:47:16.520Z,16.10
2018-09-29T16:49:45.009Z,16.00
2018-09-29T16:52:13.524Z,16.00
2018-09-29T16:54:42.011Z,15.90
2018-09-29T16:57:10.563Z,15.80
2018-09-29T16:59:39.022Z,15.70
2018-09-29T17:02:07.534Z,15.60
2018-09-29T17:04:36.166Z,15.60
2018-09-29T17:07:04.569Z,15.60
2018-09-29T17:09:33.043Z,15.40
2018-09-29T17:12:01.580Z,15.40
2018-09-29T17:14:30.098Z,15.30
2018-09-29T17:16:58.583Z,15.20
2018-09-29T17:19:27.061Z,15.20
2018-09-29T17:21:55.623Z,15.20
2018-09-29T17:24:24.081Z,15.10
2018-09-29T17:26:52.579Z,15.00
2018-09-29T17:29:21.098Z,14.90
2018-09-29T17:31:49.573Z,14.80
2018-09-29T17:34:18.085Z,14.90
2018-09-29T17:36:46.529Z,14.80
2018-09-29T17:39:15.047Z,14.70
2018-09-29T17:41:43.645Z,14.70
2018-09-29T17:44:12.141Z,14.60
2018-09-29T17:46:40.625Z,14.60
2018-09-29T17:49:09.140Z,14.50
2018-09-29T17:51:37.614Z,14.40
2018-09-29T17:54:06.129Z,14.30
2018-09-29T17:56:34.607Z,14.30
2018-09-29T17:59:03.245Z,14.20
2018-09-29T18:01:31.856Z,14.20
2018-09-29T18:04:00.384Z,14.10
2018-09-29T18:06:28.900Z,13.90
2018-09-29T18:08:58.833Z,13.80
2018-09-29T18:11:27.316Z,13.70
2018-09-29T18:13:55.814Z,13.70
2018-09-29T18:16:24.317Z,13.70
2018-09-29T18:18:52.820Z,13.80
2018-09-29T18:21:21.337Z,13.70
2018-09-29T18:23:49.954Z,13.60
2018-09-29T18:26:18.484Z,13.60
2018-09-29T18:28:46.955Z,13.50
2018-09-29T18:31:15.487Z,13.50
2018-09-29T18:33:43.984Z,13.50
2018-09-29T18:36:13.239Z,13.50
2018-09-29T18:38:42.382Z,13.40
2018-09-29T18:41:10.901Z,13.40
2018-09-29T18:43:39.394Z,13.40
2018-09-29T18:46:07.864Z,13.30
2018-09-29T18:48:36.415Z,13.30
2018-09-29T18:51:04.885Z,13.30
2018-09-29T18:53:33.369Z,13.10
2018-09-29T18:56:01.862Z,13.10
2018-09-29T18:58:30.341Z,13.00
2018-09-29T19:00:58.875Z,13.00
2018-09-29T19:03:27.375Z,12.90
2018-09-29T19:05:55.934Z,12.90
2018-09-29T19:08:24.403Z,13.00
2018-09-29T19:10:52.930Z,13.00
2018-09-29T19:13:21.400Z,13.00
2018-09-29T19:15:50.069Z,12.90
2018-09-29T19:18:18.694Z,12.60
2018-09-29T19:20:47.754Z,12.50
2018-09-29T19:23:17.209Z,12.30
2018-09-29T19:25:45.886Z,12.20
2018-09-29T19:28:14.369Z,12.20
2018-09-29T19:30:42.925Z,12.10
2018-09-29T19:33:11.640Z,12.10
2018-09-29T19:35:40.117Z,12.00
2018-09-29T19:38:08.589Z,12.00
2018-09-29T19:40:37.045Z,11.90
2018-09-29T19:43:05.568Z,11.80
2018-09-29T19:45:34.070Z,11.80
2018-09-29T19:48:02.586Z,11.80
2018-09-29T19:50:31.075Z,11.90
2018-09-29T19:52:59.532Z,12.00
2018-09-29T19:55:28.013Z,12.00
2018-09-29T19:57:56.468Z,11.90
2018-09-29T20:00:24.949Z,11.80
2018-09-29T20:02:53.438Z,11.80
2018-09-29T20:05:21.893Z,11.80
2018-09-29T20:07:50.356Z,11.80
2018-09-29T20:10:18.868Z,11.90
2018-09-29T20:12:47.349Z,11.80
2018-09-29T20:15:15.830Z,11.90
2018-09-29T20:17:44.329Z,11.90
2018-09-29T20:20:12.809Z,11.90
2018-09-29T20:22:41.272Z,11.80
2018-09-29T20:25:09.780Z,11.80
2018-09-29T20:27:38.264Z,11.70
2018-09-29T20:30:06.805Z,11.70
2018-09-29T20:32:35.329Z,11.60
2018-09-29T20:35:03.813Z,11.60
2018-09-29T20:37:32.255Z,11.60
2018-09-29T20:40:00.731Z,11.50
2018-09-29T20:42:29.247Z,11.50
2018-09-29T20:44:57.712Z,11.50
2018-09-29T20:47:26.342Z,11.50
2018-09-29T20:49:54.844Z,11.40
2018-09-29T20:52:23.362Z,11.20
2018-09-29T20:54:51.844Z,11.20
2018-09-29T20:57:20.659Z,11.20
2018-09-29T20:59:49.151Z,11.20
2018-09-29T21:02:17.639Z,11.20
2018-09-29T21:04:46.342Z,11.00
2018-09-29T21:07:15.088Z,10.90
2018-09-29T21:09:43.852Z,10.90
2018-09-29T21:12:12.415Z,10.80
2018-09-29T21:14:41.099Z,10.70
2018-09-29T21:17:10.520Z,10.70
2018-09-29T21:19:39.373Z,10.60
2018-09-29T21:22:08.316Z,10.50
2018-09-29T21:24:36.786Z,10.40
2018-09-29T21:27:05.547Z,10.30
2018-09-29T21:29:34.029Z,10.20
2018-09-29T21:32:02.710Z,10.20
2018-09-29T21:34:31.598Z,10.10
2018-09-29T21:37:00.272Z,10.00
2018-09-29T21:39:28.739Z,10.00
2018-09-29T21:41:57.254Z,10.00
2018-09-29T21:44:25.688Z,9.90
2018-09-29T21:46:54.161Z,9.90
2018-09-29T21:49:23.045Z,9.80
2018-09-29T21:51:51.530Z,9.80
2018-09-29T21:54:19.961Z,9.70
2018-09-29T21:56:48.508Z,9.70
2018-09-29T21:59:16.987Z,9.70
2018-09-29T22:01:45.469Z,9.60
2018-09-29T22:04:13.990Z,9.60
2018-09-29T22:06:42.446Z,9.60
2018-09-29T22:09:10.926Z,9.50
2018-09-29T22:11:39.432Z,9.50
2018-09-29T22:14:07.883Z,9.40
2018-09-29T22:16:36.324Z,9.40
2018-09-29T22:19:04.822Z,9.40
2018-09-29T22:21:33.286Z,9.40
2018-09-29T22:24:01.747Z,9.40
2018-09-29T22:26:30.245Z,9.40
2018-09-29T22:28:58.692Z,9.50
2018-09-29T22:31:27.182Z,9.40
2018-09-29T22:33:55.630Z,9.30
2018-09-29T22:36:24.092Z,9.20
2018-09-29T22:38:52.559Z,9.20
2018-09-29T22:41:21.042Z,9.10
2018-09-29T22:43:49.512Z,9.00
2018-09-29T22:46:17.946Z,9.00
2018-09-29T22:48:46.403Z,9.10
2018-09-29T22:51:14.884Z,9.00
2018-09-29T22:53:43.384Z,9.00
2018-09-29T22:56:11.818Z,8.90
2018-09-29T22:58:40.280Z,8.80
2018-09-29T23:01:08.743Z,8.70
2018-09-29T23:03:37.181Z,8.60
2018-09-29T23:06:05.675Z,8.50
2018-09-29T23:08:34.178Z,8.60
2018-09-29T23:11:02.653Z,8.60
2018-09-29T23:13:31.171Z,8.60
2018-09-29T23:15:59.646Z,8.50
2018-09-29T23:18:28.111Z,8.50
2018-09-29T23:20:56.573Z,8.50
2018-09-29T23:23:25.064Z,8.40
2018-09-29T23:25:53.512Z,8.40
2018-09-29T23:28:21.968Z,8.30
2018-09-29T23:30:50.456Z,8.30
2018-09-29T23:33:18.929Z,8.30
2018-09-29T23:35:47.367Z,8.40
2018-09-29T23:38:15.878Z,8.40
2018-09-29T23:40:44.331Z,8.30
2018-09-29T23:43:12.870Z,8.30
2018-09-29T23:45:41.297Z,8.20
2018-09-29T23:48:09.732Z,8.20
2018-09-29T23:50:38.184Z,8.20
2018-09-29T23:53:06.643Z,8.20
2018-09-29T23:55:35.102Z,8.20
2018-09-29T23:58:04.409Z,8.10
